Time;durP1;ratioP1;P1;durP2;ratioP2;P2;SDS_P1;SDS_P2;PMS_P1;PMS_P2;Temp;Humidity;BMP_temperature;BMP_pressure;BME280_temperature;BME280_humidity;BME280_pressure;Samples;Min_cycle;Max_cycle;Signal;HPM_P1;HPM_P2
2023/08/20 00:01:31;;;;;;;13.70;12.40;;;;;;;21.30;83.08;100453.80;130481;1259;99182;-78
2023/08/20 00:04:38;;;;;;;13.20;11.90;;;;;;;21.29;83.01;100449.90;130518;1258;99030;-78
2023/08/20 00:07:45;;;;;;;11.50;10.40;;;;;;;21.24;83.09;100447.46;130523;1259;99142;-78
2023/08/20 00:10:50;;;;;;;10.00;9.00;;;;;;;21.21;83.13;100447.77;130484;1259;98626;-78
2023/08/20 00:13:56;;;;;;;11.90;10.60;;;;;;;21.18;83.14;100446.83;130548;1259;98977;-79
2023/08/20 00:17:03;;;;;;;12.50;11.20;;;;;;;21.17;83.15;100445.96;130504;1261;99052;-78
2023/08/20 00:20:12;;;;;;;12.50;11.20;;;;;;;21.14;83.27;100443.61;130631;1259;98751;-78
2023/08/20 00:23:18;;;;;;;12.70;11.60;;;;;;;21.10;83.13;100442.38;130564;1259;97959;-78
2023/08/20 00:26:25;;;;;;;10.90;9.90;;;;;;;21.08;83.30;100443.27;130519;1259;99125;-78
2023/08/20 00:29:31;;;;;;;11.10;9.90;;;;;;;21.06;83.25;100442.86;130521;1259;99056;-78
2023/08/20 00:32:36;;;;;;;11.60;10.50;;;;;;;21.03;83.26;100437.73;130434;1257;98762;-78
2023/08/20 00:35:42;;;;;;;12.90;11.70;;;;;;;21.00;83.29;100439.89;130447;1256;97969;-78
2023/08/20 00:38:47;;;;;;;12.10;10.90;;;;;;;20.98;83.34;100443.40;130525;1256;98040;-78
2023/08/20 00:42:00;;;;;;;12.10;10.80;;;;;;;20.97;83.39;100443.66;130637;1256;98024;-78
2023/08/20 00:45:17;;;;;;;11.90;10.60;;;;;;;20.95;83.43;100444.05;130408;1259;98746;-80
2023/08/20 00:48:32;;;;;;;14.90;12.30;;;;;;;20.91;83.46;100440.27;130370;1264;98015;-80
2023/08/20 00:51:40;;;;;;;22.00;18.80;;;;;;;20.89;83.57;100443.71;129623;1263;929889;-78
2023/08/20 00:54:48;;;;;;;16.60;14.00;;;;;;;20.89;83.53;100441.03;130495;1260;97983;-78
2023/08/20 00:57:54;;;;;;;14.90;13.30;;;;;;;20.87;83.57;100437.75;130568;1256;98052;-78
2023/08/20 01:00:59;;;;;;;14.00;12.60;;;;;;;20.84;83.61;100436.05;130544;1255;98716;-78
2023/08/20 01:04:05;;;;;;;14.90;13.30;;;;;;;20.80;83.59;100431.64;130497;1256;97948;-78
2023/08/20 01:07:18;;;;;;;13.10;11.40;;;;;;;20.77;83.56;100433.49;130596;1259;98102;-80
2023/08/20 01:10:34;;;;;;;12.60;11.40;;;;;;;20.74;83.65;100435.60;130494;1259;97953;-77
2023/08/20 01:13:40;;;;;;;12.40;10.40;;;;;;;20.71;83.76;100439.20;130467;1261;98034;-77
2023/08/20 01:16:49;;;;;;;12.30;10.40;;;;;;;20.72;83.70;100441.77;130523;1261;99163;-78
2023/08/20 01:19:54;;;;;;;12.20;11.10;;;;;;;20.71;83.66;100443.16;130549;1259;98037;-78
2023/08/20 01:23:31;;;;;;;11.90;10.10;;;;;;;20.68;83.72;100441.04;130533;1259;98396;-79
2023/08/20 01:26:57;;;;;;;11.50;10.30;;;;;;;20.66;83.84;100441.77;130563;1256;97977;-82
2023/08/20 01:30:03;;;;;;;58.70;46.60;;;;;;;20.63;83.74;100437.39;130538;1260;99195;-79
2023/08/20 01:33:12;;;;;;;32.30;26.70;;;;;;;20.61;83.86;100433.35;130567;1259;99035;-79
2023/08/20 01:36:19;;;;;;;21.60;19.30;;;;;;;20.59;83.89;100432.58;130886;1255;98054;-77
2023/08/20 01:39:25;;;;;;;46.20;35.70;;;;;;;20.58;83.79;100433.72;130442;1259;98065;-77
2023/08/20 01:42:30;;;;;;;21.30;18.80;;;;;;;20.51;83.80;100433.45;130522;1275;97985;-77
2023/08/20 01:45:36;;;;;;;29.70;22.70;;;;;;;20.47;83.90;100434.80;130405;1261;99139;-77
2023/08/20 01:48:41;;;;;;;20.30;16.60;;;;;;;20.44;83.94;100437.55;130530;1259;97951;-77
2023/08/20 01:51:47;;;;;;;16.70;14.00;;;;;;;20.45;84.00;100435.10;130595;1259;98058;-77
2023/08/20 01:54:53;;;;;;;16.00;13.80;;;;;;;20.45;83.93;100438.46;130542;1259;98554;-78
2023/08/20 01:57:58;;;;;;;16.20;14.00;;;;;;;20.41;83.95;100443.78;130513;1259;99139;-77
2023/08/20 02:01:04;;;;;;;15.20;13.60;;;;;;;20.31;84.23;100444.27;130623;1261;99218;-77
2023/08/20 02:04:10;;;;;;;14.00;12.60;;;;;;;20.21;84.36;100446.00;130624;1260;99138;-77
2023/08/20 02:07:16;;;;;;;16.00;14.20;;;;;;;20.22;84.39;100447.95;130601;1257;98043;-78
2023/08/20 02:10:22;;;;;;;16.00;14.10;;;;;;;20.22;84.42;100447.66;130588;1260;98575;-78
2023/08/20 02:13:28;;;;;;;14.00;12.40;;;;;;;20.26;84.26;100445.48;130536;1260;98012;-78
2023/08/20 02:16:34;;;;;;;14.70;12.80;;;;;;;20.26;84.23;100450.17;130522;1259;99117;-78
2023/08/20 02:19:40;;;;;;;11.60;10.50;;;;;;;20.23;84.30;100450.75;130511;1259;97970;-78
2023/08/20 02:22:45;;;;;;;14.80;12.70;;;;;;;20.16;84.53;100449.39;130626;1259;99030;-78
2023/08/20 02:25:51;;;;;;;14.30;12.00;;;;;;;20.06;84.55;100449.74;130544;1259;97948;-78
2023/08/20 02:28:56;;;;;;;14.10;12.60;;;;;;;20.04;84.63;100450.48;130595;1259;99110;-79
2023/08/20 02:32:02;;;;;;;27.40;22.10;;;;;;;20.05;84.65;100450.65;130570;1259;99138;-80
2023/08/20 02:35:10;;;;;;;16.10;14.40;;;;;;;20.06;84.58;100453.08;130685;1255;98013;-79
2023/08/20 02:38:16;;;;;;;15.00;12.30;;;;;;;20.06;84.52;100453.33;130528;1259;99266;-79
2023/08/20 02:41:21;;;;;;;12.90;11.60;;;;;;;20.03;84.65;100452.28;130588;1259;98025;-79
2023/08/20 02:44:27;;;;;;;12.10;10.80;;;;;;;20.06;84.78;100450.73;130595;1260;97967;-79
2023/08/20 02:47:34;;;;;;;24.00;19.80;;;;;;;20.08;84.59;100452.48;130586;1259;98059;-78
2023/08/20 02:50:41;;;;;;;20.70;16.60;;;;;;;20.07;84.61;100450.19;130475;1259;98406;-78
2023/08/20 02:53:47;;;;;;;20.90;17.40;;;;;;;20.08;84.63;100450.77;130525;1259;99032;-78
2023/08/20 02:56:52;;;;;;;26.10;20.40;;;;;;;20.05;84.56;100447.61;130457;1261;99243;-79
2023/08/20 02:59:58;;;;;;;12.40;10.80;;;;;;;20.03;84.66;100449.17;130593;1255;98051;-79
2023/08/20 03:03:07;;;;;;;19.80;16.40;;;;;;;20.00;84.49;100449.86;130507;1256;98082;-79
2023/08/20 03:06:13;;;;;;;13.90;12.20;;;;;;;19.99;84.50;100455.08;130551;1257;97944;-78
2023/08/20 03:09:19;;;;;;;14.50;12.50;;;;;;;19.99;84.42;100457.46;130594;1254;98625;-78
2023/08/20 03:12:24;;;;;;;16.60;14.90;;;;;;;19.93;84.45;100456.96;130555;1260;98043;-78
2023/08/20 03:15:30;;;;;;;13.10;11.60;;;;;;;19.87;84.64;100460.77;130499;1254;98399;-78
2023/08/20 03:18:36;;;;;;;12.60;10.70;;;;;;;19.87;84.74;100461.96;130570;1259;99164;-78
2023/08/20 03:21:41;;;;;;;11.80;10.60;;;;;;;19.86;84.65;100463.89;130513;1255;99098;-78
2023/08/20 03:24:47;;;;;;;11.50;10.20;;;;;;;19.85;84.63;100459.89;130583;1258;99138;-78
2023/08/20 03:27:54;;;;;;;11.80;10.40;;;;;;;19.86;84.73;100462.85;130602;1260;99026;-79
2023/08/20 03:31:02;;;;;;;11.20;10.10;;;;;;;19.87;84.79;100461.80;130636;1259;99007;-78
2023/08/20 03:34:10;;;;;;;11.60;9.30;;;;;;;19.89;84.80;100464.34;130478;1259;98450;-78
2023/08/20 03:37:16;;;;;;;10.10;9.00;;;;;;;19.91;84.63;100468.55;130512;1260;99234;-78
2023/08/20 03:40:22;;;;;;;10.90;9.80;;;;;;;19.88;84.58;100463.30;130526;1254;97998;-78
2023/08/20 03:43:27;;;;;;;12.00;10.80;;;;;;;19.88;84.74;100464.92;130602;1259;99164;-78
2023/08/20 03:46:33;;;;;;;11.20;10.10;;;;;;;19.91;84.81;100465.70;130526;1259;98016;-78
2023/08/20 03:49:39;;;;;;;10.80;9.80;;;;;;;19.94;84.73;100468.21;130458;1260;98817;-78
2023/08/20 03:52:46;;;;;;;10.40;9.40;;;;;;;19.96;84.80;100465.08;130694;1256;99160;-78
2023/08/20 03:55:52;;;;;;;10.00;9.00;;;;;;;19.96;84.70;100467.27;130556;1254;98023;-78
2023/08/20 03:58:58;;;;;;;10.30;9.30;;;;;;;19.99;84.85;100467.00;130631;1258;97949;-78
2023/08/20 04:02:03;;;;;;;10.50;9.30;;;;;;;20.05;84.81;100463.86;130583;1257;99189;-79
2023/08/20 04:05:09;;;;;;;10.80;9.80;;;;;;;20.10;84.72;100463.98;130514;1259;99167;-78
2023/08/20 04:08:15;;;;;;;12.10;11.00;;;;;;;20.15;84.71;100465.77;130561;1256;98608;-78
2023/08/20 04:11:20;;;;;;;11.40;10.00;;;;;;;20.17;84.59;100462.65;130567;1256;99035;-78
2023/08/20 04:14:26;;;;;;;9.90;8.90;;;;;;;20.19;84.75;100462.35;130493;1262;97992;-78
2023/08/20 04:17:32;;;;;;;10.50;9.40;;;;;;;20.25;84.69;100467.67;130573;1256;98665;-78
2023/08/20 04:20:38;;;;;;;11.00;9.90;;;;;;;20.28;84.60;100470.50;130596;1256;98405;-78
2023/08/20 04:23:44;;;;;;;10.10;9.10;;;;;;;20.31;84.61;100471.98;130456;1256;99045;-78
2023/08/20 04:26:49;;;;;;;10.80;9.80;;;;;;;20.36;84.62;100471.02;130589;1259;97970;-78
2023/08/20 04:29:58;;;;;;;9.70;8.70;;;;;;;20.41;84.72;100470.67;130692;1255;98740;-78
2023/08/20 04:33:05;;;;;;;13.10;8.70;;;;;;;20.47;84.66;100467.70;130539;1260;97991;-78
2023/08/20 04:36:12;;;;;;;10.60;9.20;;;;;;;20.58;84.79;100467.76;130621;1259;101410;-78
2023/08/20 04:39:18;;;;;;;10.60;9.60;;;;;;;20.70;84.92;100469.95;130655;1261;97943;-78
2023/08/20 04:42:28;;;;;;;11.10;10.00;;;;;;;20.85;84.96;100471.77;130552;1259;98747;-78
2023/08/20 04:45:35;;;;;;;10.50;9.50;;;;;;;21.02;84.99;100476.27;130668;1258;98040;-79
2023/08/20 04:48:41;;;;;;;10.80;9.70;;;;;;;21.21;84.87;100472.91;130603;1259;98036;-78
2023/08/20 04:51:47;;;;;;;9.80;8.80;;;;;;;21.36;84.96;100473.50;131796;1255;99010;-79
2023/08/20 04:54:53;;;;;;;11.10;10.00;;;;;;;21.54;85.03;100472.21;130717;1259;97958;-79
2023/08/20 04:58:00;;;;;;;9.90;8.90;;;;;;;21.72;85.09;100474.84;130626;1256;98070;-78
2023/08/20 05:01:07;;;;;;;11.10;10.10;;;;;;;21.90;85.06;100472.42;130509;1261;98850;-78
2023/08/20 05:04:13;;;;;;;9.90;8.90;;;;;;;22.07;84.97;100468.60;130562;1259;98741;-79
2023/08/20 05:07:19;;;;;;;9.90;9.00;;;;;;;22.23;85.08;100466.11;130467;1260;97989;-78
2023/08/20 05:10:25;;;;;;;10.00;9.00;;;;;;;22.37;85.04;100464.73;130473;1259;98764;-79
2023/08/20 05:13:31;;;;;;;12.50;10.10;;;;;;;22.56;85.21;100469.87;130591;1260;98026;-78
2023/08/20 05:16:36;;;;;;;11.20;10.10;;;;;;;22.75;85.11;100469.14;130643;1255;98072;-79
2023/08/20 05:19:44;;;;;;;11.80;10.50;;;;;;;22.93;85.11;100471.84;130581;1258;98044;-79
2023/08/20 05:22:50;;;;;;;11.20;9.30;;;;;;;23.09;84.92;100472.41;130529;1262;98086;-79
2023/08/20 05:25:55;;;;;;;10.30;9.10;;;;;;;23.24;85.23;100474.06;130381;1256;97980;-80
2023/08/20 05:29:01;;;;;;;11.20;9.80;;;;;;;23.39;85.36;100475.05;130509;1256;99081;-79
2023/08/20 05:32:08;;;;;;;11.50;10.40;;;;;;;23.54;85.36;100475.08;130587;1255;98633;-78
2023/08/20 05:35:13;;;;;;;12.20;11.10;;;;;;;23.69;85.43;100480.45;130542;1259;98652;-79
2023/08/20 05:38:21;;;;;;;12.60;11.40;;;;;;;23.84;85.52;100484.89;130537;1256;99163;-79
2023/08/20 05:41:27;;;;;;;12.40;11.20;;;;;;;23.96;85.58;100488.86;130538;1271;97946;-79
2023/08/20 05:44:33;;;;;;;13.30;12.10;;;;;;;24.08;85.70;100490.85;130627;1259;98034;-79
2023/08/20 05:47:42;;;;;;;13.40;12.20;;;;;;;24.19;85.53;100492.04;130516;1259;97953;-80
2023/08/20 05:50:48;;;;;;;14.20;12.80;;;;;;;24.32;85.57;100494.95;130482;1260;98557;-79
2023/08/20 05:53:54;;;;;;;14.20;12.80;;;;;;;24.42;85.17;100496.69;130523;1259;97940;-78
2023/08/20 05:57:01;;;;;;;13.90;12.50;;;;;;;24.50;85.22;100498.23;130403;1262;98759;-79
2023/08/20 06:00:11;;;;;;;12.80;11.60;;;;;;;24.60;85.07;100498.63;130502;1257;98719;-78
2023/08/20 06:03:19;;;;;;;13.30;12.10;;;;;;;24.72;84.91;100498.23;130764;1255;99158;-78
2023/08/20 06:06:25;;;;;;;14.00;12.70;;;;;;;24.82;84.86;100499.20;130593;1259;99170;-78
2023/08/20 06:09:30;;;;;;;13.70;12.40;;;;;;;24.90;84.76;100504.34;130572;1259;98012;-76
2023/08/20 06:12:36;;;;;;;14.20;12.90;;;;;;;24.97;84.77;100505.45;130557;1256;98065;-77
2023/08/20 06:15:42;;;;;;;13.40;12.10;;;;;;;25.02;84.59;100504.02;130532;1259;99154;-77
2023/08/20 06:18:47;;;;;;;12.80;11.60;;;;;;;25.09;84.57;100507.38;130609;1257;99023;-77
2023/08/20 06:21:53;;;;;;;14.00;12.30;;;;;;;25.17;84.45;100509.06;130572;1259;98731;-78
2023/08/20 06:24:58;;;;;;;14.10;12.80;;;;;;;25.26;84.61;100508.54;130545;1256;98757;-76
2023/08/20 06:28:04;;;;;;;15.70;14.20;;;;;;;25.32;84.24;100508.23;130613;1257;98040;-78
2023/08/20 06:31:10;;;;;;;13.40;12.20;;;;;;;25.36;83.95;100507.70;130535;1257;99190;-77
2023/08/20 06:34:15;;;;;;;13.40;12.20;;;;;;;25.41;83.79;100514.02;130538;1259;99158;-78
2023/08/20 06:37:21;;;;;;;13.60;12.30;;;;;;;25.49;83.89;100512.09;130629;1259;98748;-77
2023/08/20 06:40:26;;;;;;;13.80;12.50;;;;;;;25.57;83.36;100513.05;130552;1259;97959;-77
2023/08/20 06:43:32;;;;;;;17.20;15.40;;;;;;;25.61;83.00;100515.15;130595;1259;99141;-77
2023/08/20 06:46:38;;;;;;;16.40;14.90;;;;;;;25.64;83.00;100522.09;130616;1259;99225;-78
2023/08/20 06:49:43;;;;;;;14.90;13.50;;;;;;;25.72;83.02;100522.33;130550;1259;97983;-78
2023/08/20 06:52:49;;;;;;;16.20;14.50;;;;;;;25.80;82.25;100523.56;130532;1259;98972;-77
2023/08/20 06:55:56;;;;;;;17.70;15.90;;;;;;;25.84;82.06;100526.64;130780;1259;97952;-76
2023/08/20 06:59:02;;;;;;;17.30;15.80;;;;;;;25.89;80.90;100528.03;130827;1259;98699;-79
2023/08/20 07:02:08;;;;;;;17.70;16.10;;;;;;;25.92;81.53;100528.98;130580;1262;97980;-79
2023/08/20 07:05:14;;;;;;;17.20;15.50;;;;;;;25.97;81.08;100530.20;130550;1261;98738;-79
2023/08/20 07:08:20;;;;;;;19.70;14.90;;;;;;;25.98;80.48;100525.42;130740;1257;99237;-79
2023/08/20 07:11:26;;;;;;;15.40;13.80;;;;;;;25.98;79.52;100526.13;130506;1256;99059;-79
2023/08/20 07:14:32;;;;;;;15.90;14.30;;;;;;;26.04;80.71;100528.75;130617;1257;97944;-78
2023/08/20 07:17:38;;;;;;;16.10;14.50;;;;;;;26.16;80.85;100532.91;130501;1259;98831;-78
2023/08/20 07:20:44;;;;;;;15.10;13.70;;;;;;;26.22;79.06;100533.99;130465;1259;98736;-78
2023/08/20 07:23:50;;;;;;;16.50;14.70;;;;;;;26.26;79.39;100530.93;130511;1257;99080;-78
2023/08/20 07:27:00;;;;;;;14.50;13.10;;;;;;;26.25;78.70;100534.81;130455;1259;98628;-81
2023/08/20 07:30:07;;;;;;;13.80;12.50;;;;;;;26.29;78.27;100532.02;130521;1259;98045;-78
2023/08/20 07:33:13;;;;;;;15.40;14.00;;;;;;;26.34;78.81;100536.73;130536;1259;97974;-78
2023/08/20 07:36:21;;;;;;;17.00;15.40;;;;;;;26.41;78.26;100537.98;130504;1259;98035;-78
2023/08/20 07:39:27;;;;;;;15.40;13.90;;;;;;;26.48;77.63;100537.77;130515;1259;97977;-78
2023/08/20 07:42:33;;;;;;;15.20;13.70;;;;;;;26.55;78.10;100542.19;130503;1259;97949;-78
2023/08/20 07:45:38;;;;;;;14.70;13.10;;;;;;;26.63;78.50;100544.95;130461;1259;99139;-78
2023/08/20 07:48:44;;;;;;;13.90;12.60;;;;;;;26.73;78.15;100551.05;130445;1259;99210;-79
2023/08/20 07:51:52;;;;;;;15.30;13.70;;;;;;;26.82;78.07;100547.08;130506;1259;98014;-78
2023/08/20 07:54:57;;;;;;;15.70;14.20;;;;;;;26.89;77.74;100551.92;130495;1259;99231;-78
2023/08/20 07:58:03;;;;;;;14.60;13.20;;;;;;;26.96;77.63;100553.20;130520;1259;97987;-78
2023/08/20 08:01:08;;;;;;;15.10;13.70;;;;;;;27.01;75.99;100555.87;130509;1259;97942;-78
2023/08/20 08:04:14;;;;;;;17.60;15.80;;;;;;;27.00;76.30;100558.75;130464;1259;99057;-78
2023/08/20 08:07:20;;;;;;;16.30;14.80;;;;;;;27.02;75.63;100556.24;130497;1262;98626;-78
2023/08/20 08:10:25;;;;;;;15.20;13.80;;;;;;;27.04;76.76;100555.89;130489;1259;97967;-78
2023/08/20 08:13:31;;;;;;;15.70;14.20;;;;;;;27.14;77.22;100555.67;130487;1259;98681;-78
2023/08/20 08:16:37;;;;;;;14.20;13.00;;;;;;;27.23;77.10;100551.58;130499;1259;99049;-78
2023/08/20 08:19:42;;;;;;;16.00;14.60;;;;;;;27.30;76.64;100549.20;130491;1257;97970;-79
2023/08/20 08:22:48;;;;;;;14.70;13.30;;;;;;;27.33;75.70;100549.79;130479;1259;98077;-79
2023/08/20 08:25:54;;;;;;;17.10;15.50;;;;;;;27.42;76.13;100546.27;130513;1259;97970;-79
2023/08/20 08:28:59;;;;;;;16.40;14.90;;;;;;;27.51;76.15;100544.39;130504;1259;98663;-78
2023/08/20 08:32:06;;;;;;;15.40;13.90;;;;;;;27.59;75.34;100547.31;130470;1259;98837;-78
2023/08/20 08:35:11;;;;;;;16.60;15.00;;;;;;;27.63;75.37;100542.42;130489;1259;98039;-78
2023/08/20 08:38:17;;;;;;;15.50;14.00;;;;;;;27.68;75.00;100546.36;130484;1259;98746;-78
2023/08/20 08:41:24;;;;;;;14.80;13.60;;;;;;;27.64;72.08;100548.41;130451;1259;97980;-79
2023/08/20 08:44:31;;;;;;;15.40;13.80;;;;;;;27.61;73.02;100546.02;130509;1259;99122;-79
2023/08/20 08:47:38;;;;;;;15.80;14.30;;;;;;;27.67;73.94;100542.34;130513;1259;98735;-79
2023/08/20 08:50:44;;;;;;;13.90;12.60;;;;;;;27.71;72.30;100545.78;130478;1259;98023;-79
2023/08/20 08:53:50;;;;;;;13.30;12.00;;;;;;;27.71;72.39;100543.91;130450;1270;99192;-79
2023/08/20 08:56:55;;;;;;;15.60;14.10;;;;;;;27.80;71.62;100548.44;130504;1259;97973;-79
2023/08/20 09:00:01;;;;;;;14.20;12.90;;;;;;;27.82;71.53;100549.05;130494;1269;97984;-79
2023/08/20 09:03:07;;;;;;;14.80;13.40;;;;;;;27.88;71.22;100549.34;130486;1257;97967;-78
2023/08/20 09:06:13;;;;;;;14.60;13.30;;;;;;;27.91;70.33;100550.59;130539;1261;97966;-78
2023/08/20 09:09:19;;;;;;;13.10;11.80;;;;;;;27.92;70.96;100552.67;130592;1262;99132;-78
2023/08/20 09:12:25;;;;;;;14.10;12.90;;;;;;;27.96;70.29;100551.73;130607;1259;97955;-78
2023/08/20 09:15:36;;;;;;;14.00;12.50;;;;;;;27.98;68.76;100550.93;130511;1262;99138;-79
2023/08/20 09:18:41;;;;;;;;;;;;;;;28.03;68.98;100552.34;130496;1258;99023;-79
2023/08/20 09:21:52;;;;;;;12.80;11.70;;;;;;;28.07;67.46;100552.44;130567;1259;98747;-78
2023/08/20 09:24:58;;;;;;;13.10;12.00;;;;;;;28.11;68.16;100549.76;130601;1262;99143;-79
2023/08/20 09:28:06;;;;;;;13.50;12.40;;;;;;;28.16;68.00;100549.96;130608;1259;98754;-78
2023/08/20 09:31:13;;;;;;;13.00;11.70;;;;;;;28.20;67.58;100545.55;130611;1259;98668;-78
2023/08/20 09:34:18;;;;;;;11.90;10.90;;;;;;;28.28;68.66;100545.94;130710;1259;99068;-79
2023/08/20 09:37:25;;;;;;;12.50;11.40;;;;;;;28.36;68.26;100544.07;131177;1256;98640;-82
2023/08/20 09:40:31;;;;;;;12.60;11.30;;;;;;;28.37;66.46;100548.86;130945;1259;99122;-79
2023/08/20 09:43:40;;;;;;;11.70;10.60;;;;;;;28.35;63.84;100549.00;132043;1259;97967;-80
2023/08/20 09:46:46;;;;;;;13.00;11.90;;;;;;;28.37;66.16;100548.95;130635;1259;99161;-81
2023/08/20 09:49:53;;;;;;;13.30;11.90;;;;;;;28.42;66.39;100543.05;131012;1260;99147;-81
2023/08/20 09:53:04;;;;;;;11.60;10.60;;;;;;;28.50;66.05;100543.67;130525;1262;99052;-79
2023/08/20 09:56:16;;;;;;;12.90;11.80;;;;;;;28.56;65.23;100541.75;130410;1261;98068;-79
2023/08/20 09:59:20;;;;;;;;;;;;;;;28.58;64.63;100538.30;130402;1260;99085;-80
2023/08/20 10:02:26;;;;;;;13.40;12.20;;;;;;;28.64;64.90;100541.62;130318;1259;98046;-78
2023/08/20 10:05:33;;;;;;;12.60;11.40;;;;;;;28.68;65.05;100542.86;130557;1259;99138;-81
2023/08/20 10:08:39;;;;;;;13.10;11.90;;;;;;;28.73;63.66;100539.91;130896;1257;99106;-79
2023/08/20 10:11:44;;;;;;;13.70;12.40;;;;;;;28.82;63.95;100541.77;130518;1259;97945;-79
2023/08/20 10:14:52;;;;;;;14.10;12.90;;;;;;;28.90;64.94;100538.83;130415;1260;99131;-78
2023/08/20 10:17:59;;;;;;;13.70;12.40;;;;;;;29.00;63.86;100537.38;130427;1259;98040;-78
2023/08/20 10:21:07;;;;;;;13.70;12.50;;;;;;;29.12;63.68;100533.77;130466;1259;99235;-78
2023/08/20 10:24:19;;;;;;;14.40;13.00;;;;;;;29.24;63.58;100537.44;130457;1259;97978;-78
2023/08/20 10:27:30;;;;;;;14.10;12.80;;;;;;;29.28;62.46;100530.64;130503;1259;99157;-79
2023/08/20 10:30:35;;;;;;;12.40;11.20;;;;;;;29.34;63.15;100532.80;130406;1260;98489;-80
2023/08/20 10:33:50;;;;;;;12.40;11.30;;;;;;;29.40;61.12;100531.54;130581;1261;98743;-81
2023/08/20 10:36:56;;;;;;;12.40;11.30;;;;;;;29.54;63.06;100531.17;130423;1260;99167;-78
2023/08/20 10:40:04;;;;;;;12.10;11.10;;;;;;;29.67;62.44;100528.83;130405;1259;98118;-78
2023/08/20 10:43:09;;;;;;;12.80;11.70;;;;;;;29.73;61.34;100527.52;131155;1259;98042;-79
2023/08/20 10:46:21;;;;;;;13.20;12.00;;;;;;;29.63;59.76;100527.61;130619;1259;97977;-79
2023/08/20 10:49:29;;;;;;;12.60;11.50;;;;;;;29.37;60.01;100532.25;130597;1259;99180;-79
2023/08/20 10:52:39;;;;;;;12.50;11.50;;;;;;;29.24;61.19;100525.66;130430;1259;99177;-79
2023/08/20 10:55:50;;;;;;;12.00;10.90;;;;;;;29.30;61.66;100518.82;130447;1259;99106;-79
2023/08/20 10:58:56;;;;;;;12.90;11.80;;;;;;;29.38;60.47;100520.76;130523;1259;99088;-81
2023/08/20 11:02:03;;;;;;;13.10;12.00;;;;;;;29.31;61.55;100517.23;130548;1259;98028;-78
2023/08/20 11:05:18;;;;;;;12.70;11.50;;;;;;;29.24;60.33;100520.66;130738;1260;98026;-80
2023/08/20 11:08:24;;;;;;;12.30;11.20;;;;;;;29.12;60.54;100514.96;130933;1260;97971;-80
2023/08/20 11:11:31;;;;;;;11.20;10.30;;;;;;;29.04;60.48;100517.13;131114;1259;98450;-81
2023/08/20 11:14:37;;;;;;;11.10;10.10;;;;;;;29.13;59.51;100515.19;131161;1262;98632;-79
2023/08/20 11:17:48;;;;;;;10.70;9.70;;;;;;;29.27;59.75;100508.10;130581;1260;97962;-79
2023/08/20 11:20:54;;;;;;;10.70;9.70;;;;;;;29.42;59.29;100504.38;130463;1262;98069;-79
2023/08/20 11:24:02;;;;;;;11.30;10.30;;;;;;;29.56;59.32;100506.32;130490;1261;97954;-79
2023/08/20 11:27:08;;;;;;;11.20;10.20;;;;;;;29.63;57.60;100507.27;130629;1259;97955;-80
2023/08/20 11:30:14;;;;;;;10.90;9.90;;;;;;;29.66;57.65;100501.70;130523;1261;98753;-79
2023/08/20 11:33:21;;;;;;;11.10;10.00;;;;;;;29.58;57.70;100502.41;130516;1262;98403;-80
2023/08/20 11:36:27;;;;;;;10.20;9.30;;;;;;;29.63;57.53;100507.65;130442;1256;97985;-79
2023/08/20 11:39:36;;;;;;;9.30;8.60;;;;;;;29.70;58.03;100499.56;131243;1259;99115;-82
2023/08/20 11:42:42;;;;;;;9.70;8.90;;;;;;;29.73;56.48;100500.96;130941;1259;99118;-79
2023/08/20 11:45:50;;;;;;;9.90;9.00;;;;;;;29.76;57.98;100498.11;130698;1269;98778;-79
2023/08/20 11:49:04;;;;;;;10.30;9.30;;;;;;;29.83;57.79;100495.02;130608;1256;97967;-79
2023/08/20 11:52:10;;;;;;;10.70;9.90;;;;;;;29.87;57.03;100498.44;130617;1259;98509;-80
2023/08/20 11:55:22;;;;;;;10.00;9.20;;;;;;;29.87;56.96;100493.59;130819;1261;97926;-79
2023/08/20 11:58:30;;;;;;;10.00;9.20;;;;;;;29.89;57.63;100491.49;130713;1268;97966;-81
2023/08/20 12:01:36;;;;;;;10.10;9.30;;;;;;;29.85;56.96;100492.71;130597;1259;98174;-79
2023/08/20 12:04:41;;;;;;;11.20;10.20;;;;;;;29.81;55.93;100493.27;130614;1259;99151;-79
2023/08/20 12:07:57;;;;;;;11.00;10.00;;;;;;;29.85;57.16;100490.18;130591;1260;99140;-79
2023/08/20 12:11:03;;;;;;;11.20;10.10;;;;;;;29.93;56.88;100495.80;130730;1259;97973;-79
2023/08/20 12:14:09;;;;;;;10.60;9.80;;;;;;;29.94;56.14;100494.02;130615;1259;98069;-79
2023/08/20 12:17:17;;;;;;;11.00;9.90;;;;;;;29.93;56.51;100492.65;130840;1259;98758;-80
2023/08/20 12:20:23;;;;;;;10.50;9.60;;;;;;;29.88;56.45;100490.23;130834;1259;97946;-79
2023/08/20 12:23:28;;;;;;;10.70;9.80;;;;;;;29.93;56.41;100492.77;130512;1259;99132;-79
2023/08/20 12:26:34;;;;;;;10.80;9.80;;;;;;;29.99;56.01;100489.63;130634;1259;97961;-80
2023/08/20 12:29:40;;;;;;;10.50;9.60;;;;;;;30.02;54.59;100487.58;130636;1258;98631;-80
2023/08/20 12:32:45;;;;;;;11.00;10.10;;;;;;;30.03;55.14;100488.94;130540;1259;97970;-80
2023/08/20 12:35:51;;;;;;;11.10;10.10;;;;;;;30.02;54.12;100491.81;130670;1259;99142;-80
2023/08/20 12:38:57;;;;;;;10.60;9.60;;;;;;;30.02;54.03;100488.35;130693;1262;97988;-79
2023/08/20 12:42:03;;;;;;;10.40;9.60;;;;;;;30.08;54.39;100484.44;130876;1259;98741;-79
2023/08/20 12:45:10;;;;;;;10.20;9.30;;;;;;;30.18;55.19;100485.68;131334;1256;98748;-80
2023/08/20 12:48:16;;;;;;;10.70;9.80;;;;;;;30.28;55.00;100486.04;130598;1259;98284;-79
2023/08/20 12:51:22;;;;;;;10.60;9.70;;;;;;;30.34;55.25;100482.20;130501;1259;191207;-79
2023/08/20 12:54:27;;;;;;;10.10;9.20;;;;;;;30.38;54.04;100486.98;130571;1259;99260;-80
2023/08/20 12:57:35;;;;;;;10.40;9.50;;;;;;;30.36;52.68;100486.98;130566;1269;97967;-79
2023/08/20 13:00:41;;;;;;;10.70;9.80;;;;;;;30.27;52.44;100492.27;130742;1259;97970;-80
2023/08/20 13:03:48;;;;;;;10.60;9.70;;;;;;;30.25;53.62;100487.05;130696;1259;97974;-81
2023/08/20 13:06:57;;;;;;;10.80;9.80;;;;;;;30.27;53.43;100485.88;130906;1259;99125;-80
2023/08/20 13:10:04;;;;;;;10.40;9.50;;;;;;;30.30;52.96;100489.56;130839;1256;98463;-79
2023/08/20 13:13:13;;;;;;;10.80;9.80;;;;;;;30.32;52.55;100489.14;130596;1262;98745;-79
2023/08/20 13:16:21;;;;;;;10.00;9.00;;;;;;;30.33;52.38;100484.20;130669;1259;99174;-79
2023/08/20 13:19:32;;;;;;;10.10;9.10;;;;;;;30.36;51.81;100487.70;130732;1255;98373;-81
2023/08/20 13:22:43;;;;;;;9.10;8.30;;;;;;;30.41;51.55;100487.08;130768;1258;98647;-81
2023/08/20 13:25:49;;;;;;;9.00;8.10;;;;;;;30.45;49.83;100482.67;130727;1261;98749;-82
2023/08/20 13:28:56;;;;;;;9.00;8.20;;;;;;;30.44;48.92;100480.91;130862;1259;98579;-80
2023/08/20 13:32:02;;;;;;;8.80;8.00;;;;;;;30.44;49.39;100480.19;130766;1261;98747;-81
2023/08/20 13:35:09;;;;;;;8.40;7.70;;;;;;;30.37;48.92;100481.48;130625;1269;97944;-82
2023/08/20 13:38:15;;;;;;;8.60;7.90;;;;;;;30.16;49.65;100482.21;130659;1262;99124;-81
2023/08/20 13:41:20;;;;;;;9.30;8.50;;;;;;;30.06;49.31;100474.86;130912;1260;99161;-80
2023/08/20 13:44:26;;;;;;;9.40;8.60;;;;;;;30.07;49.52;100469.30;130744;1260;98069;-79
2023/08/20 13:47:31;;;;;;;8.90;8.10;;;;;;;30.09;49.81;100467.81;130757;1261;99036;-80
2023/08/20 13:50:37;;;;;;;9.10;8.30;;;;;;;30.14;49.62;100467.53;130760;1261;99166;-82
2023/08/20 13:53:44;;;;;;;9.40;8.60;;;;;;;30.16;49.55;100464.00;130746;1261;97957;-81
2023/08/20 13:56:51;;;;;;;8.70;8.00;;;;;;;30.14;48.85;100466.81;130751;1261;98729;-79
2023/08/20 13:59:57;;;;;;;9.20;8.30;;;;;;;30.08;48.39;100468.70;130762;1260;98744;-81
2023/08/20 14:03:02;;;;;;;9.30;8.50;;;;;;;30.08;49.20;100467.77;130757;1261;98069;-80